TRA84P EHAM-LICJ
Flight info
| Callsign | TRA84P |
|---|---|
| Flight time | 2h 23m |
| Altitude | 35000 |
| Route | EDUPO Z739 MISGO DCT ASBON DCT TUSUK DCT BATUB DCT TIRUL M738 NATAG DCT LORLO DCT ADOSA DCT SOVAN DCT PEPIX DCT GIANO |
| Aircraft | A21N/M-SDE2E3FGHIRWXY/LB1 |
Departure
| Time | 2026-04-29 07:54 |
|---|---|
| Airport | Amsterdam Airport Schiphol (EHAM) |
Arrival
| Time | 2026-04-29 10:17 |
|---|---|
| Airport | Falcone–Borsellino Airport (LICJ) |
| Time | Latitude | Longitude | Altitude | Speed | Heading |
|---|---|---|---|---|---|
| 2026-04-29 07:27 | 52.30897 | 4.77303 | 4 ft | 0 kts | 3° |
| 2026-04-29 07:35 | 52.30888 | 4.77302 | 4 ft | 3 kts | 360° |
| 2026-04-29 07:35 | 52.30868 | 4.77304 | 4 ft | 3 kts | 355° |
| 2026-04-29 07:36 | 52.30853 | 4.77304 | 4 ft | 3 kts | 42° |
| 2026-04-29 07:36 | 52.30846 | 4.77288 | 4 ft | 3 kts | 73° |
| 2026-04-29 07:36 | 52.30843 | 4.77267 | 4 ft | 1 kts | 78° |
| 2026-04-29 07:36 | 52.30843 | 4.77266 | 4 ft | 0 kts | 78° |
| 2026-04-29 07:39 | 52.30843 | 4.77271 | 4 ft | 1 kts | 96° |
| 2026-04-29 07:39 | 52.30841 | 4.77299 | 4 ft | 4 kts | 94° |
| 2026-04-29 07:40 | 52.30838 | 4.77354 | 4 ft | 6 kts | 93° |
| 2026-04-29 07:40 | 52.30836 | 4.77438 | 4 ft | 9 kts | 94° |
| 2026-04-29 07:40 | 52.30834 | 4.77552 | 4 ft | 11 kts | 76° |
| 2026-04-29 07:40 | 52.30900 | 4.77610 | 4 ft | 13 kts | 2° |
| 2026-04-29 07:41 | 52.30992 | 4.77617 | 4 ft | 14 kts | 3° |
| 2026-04-29 07:41 | 52.31092 | 4.77628 | 4 ft | 15 kts | 4° |
| 2026-04-29 07:41 | 52.31201 | 4.77638 | 4 ft | 16 kts | 2° |
| 2026-04-29 07:41 | 52.31318 | 4.77647 | 4 ft | 17 kts | 3° |
| 2026-04-29 07:42 | 52.31441 | 4.77642 | 4 ft | 18 kts | 338° |
| 2026-04-29 07:42 | 52.31538 | 4.77516 | 4 ft | 17 kts | 314° |
| 2026-04-29 07:42 | 52.31577 | 4.77332 | 4 ft | 18 kts | 265° |
| 2026-04-29 07:42 | 52.31567 | 4.77120 | 4 ft | 19 kts | 268° |
| 2026-04-29 07:43 | 52.31562 | 4.76901 | 4 ft | 19 kts | 267° |
| 2026-04-29 07:43 | 52.31555 | 4.76678 | 4 ft | 20 kts | 266° |
| 2026-04-29 07:43 | 52.31545 | 4.76444 | 5 ft | 21 kts | 266° |
| 2026-04-29 07:43 | 52.31537 | 4.76207 | 4 ft | 21 kts | 267° |
| 2026-04-29 07:44 | 52.31530 | 4.75969 | 5 ft | 21 kts | 266° |
| 2026-04-29 07:44 | 52.31520 | 4.75722 | 4 ft | 22 kts | 265° |
| 2026-04-29 07:44 | 52.31509 | 4.75464 | 4 ft | 23 kts | 266° |
| 2026-04-29 07:44 | 52.31501 | 4.75196 | 4 ft | 24 kts | 267° |
| 2026-04-29 07:45 | 52.31493 | 4.74917 | 4 ft | 25 kts | 267° |
| 2026-04-29 07:45 | 52.31489 | 4.74809 | 4 ft | 5 kts | 263° |
| 2026-04-29 07:45 | 52.31485 | 4.74743 | 4 ft | 7 kts | 264° |
| 2026-04-29 07:45 | 52.31482 | 4.74660 | 4 ft | 8 kts | 267° |
| 2026-04-29 07:46 | 52.31479 | 4.74560 | 5 ft | 10 kts | 268° |
| 2026-04-29 07:46 | 52.31477 | 4.74443 | 5 ft | 11 kts | 268° |
| 2026-04-29 07:46 | 52.31489 | 4.74319 | 4 ft | 12 kts | 335° |
| 2026-04-29 07:46 | 52.31579 | 4.74295 | 4 ft | 14 kts | 360° |
| 2026-04-29 07:47 | 52.31679 | 4.74307 | 5 ft | 15 kts | 6° |
| 2026-04-29 07:47 | 52.31786 | 4.74323 | 4 ft | 16 kts | 3° |
| 2026-04-29 07:47 | 52.31902 | 4.74334 | 4 ft | 17 kts | 3° |
| 2026-04-29 07:47 | 52.31996 | 4.74331 | 4 ft | 13 kts | 339° |
| 2026-04-29 07:48 | 52.32031 | 4.74204 | 4 ft | 14 kts | 272° |
| 2026-04-29 07:48 | 52.32037 | 4.74038 | 3 ft | 15 kts | 273° |
| 2026-04-29 07:48 | 52.32044 | 4.73860 | 4 ft | 16 kts | 273° |
| 2026-04-29 07:48 | 52.32050 | 4.73668 | 5 ft | 17 kts | 273° |
| 2026-04-29 07:49 | 52.32058 | 4.73465 | 4 ft | 18 kts | 278° |
| 2026-04-29 07:49 | 52.32133 | 4.73297 | 4 ft | 19 kts | 321° |
| 2026-04-29 07:49 | 52.32236 | 4.73148 | 4 ft | 20 kts | 317° |
| 2026-04-29 07:49 | 52.32344 | 4.72992 | 4 ft | 21 kts | 319° |
| 2026-04-29 07:50 | 52.32458 | 4.72832 | 4 ft | 22 kts | 321° |
| 2026-04-29 07:50 | 52.32578 | 4.72668 | 4 ft | 23 kts | 319° |
| 2026-04-29 07:50 | 52.32697 | 4.72487 | 4 ft | 24 kts | 307° |
| 2026-04-29 07:50 | 52.32807 | 4.72277 | 4 ft | 25 kts | 311° |
| 2026-04-29 07:51 | 52.32925 | 4.72063 | 4 ft | 26 kts | 312° |
| 2026-04-29 07:51 | 52.33046 | 4.71839 | 4 ft | 27 kts | 311° |
| 2026-04-29 07:51 | 52.33143 | 4.71642 | 4 ft | 18 kts | 283° |
| 2026-04-29 07:51 | 52.33130 | 4.71443 | 4 ft | 19 kts | 291° |
| 2026-04-29 07:52 | 52.33213 | 4.71278 | 4 ft | 19 kts | 311° |
| 2026-04-29 07:52 | 52.33303 | 4.71107 | 4 ft | 20 kts | 310° |
| 2026-04-29 07:52 | 52.33407 | 4.70957 | 3 ft | 14 kts | 344° |
| 2026-04-29 07:52 | 52.33495 | 4.70951 | 4 ft | 12 kts | 3° |
| 2026-04-29 07:53 | 52.33649 | 4.70967 | 6 ft | 48 kts | 3° |
| 2026-04-29 07:53 | 52.34208 | 4.71035 | 2 ft | 110 kts | 4° |
| 2026-04-29 07:53 | 52.35135 | 4.71103 | 13 ft | 156 kts | 5° |
| 2026-04-29 07:53 | 52.36204 | 4.71148 | 566 ft | 152 kts | 8° |
| 2026-04-29 07:54 | 52.37285 | 4.71324 | 1115 ft | 155 kts | 12° |
| 2026-04-29 07:54 | 52.38448 | 4.71476 | 1400 ft | 182 kts | 9° |
| 2026-04-29 07:54 | 52.39791 | 4.71577 | 1861 ft | 202 kts | 10° |
| 2026-04-29 07:54 | 52.41254 | 4.71729 | 2347 ft | 223 kts | 14° |
| 2026-04-29 07:55 | 52.42771 | 4.72383 | 2803 ft | 234 kts | 31° |
| 2026-04-29 07:55 | 52.44210 | 4.73669 | 3603 ft | 238 kts | 36° |
| 2026-04-29 07:55 | 52.45655 | 4.75034 | 4472 ft | 241 kts | 35° |
| 2026-04-29 07:55 | 52.47035 | 4.76615 | 5295 ft | 243 kts | 48° |
| 2026-04-29 07:56 | 52.47988 | 4.78880 | 6071 ft | 244 kts | 69° |
| 2026-04-29 07:56 | 52.48344 | 4.81609 | 6853 ft | 248 kts | 84° |
| 2026-04-29 07:56 | 52.48463 | 4.84462 | 7601 ft | 253 kts | 85° |
| 2026-04-29 07:56 | 52.48564 | 4.87376 | 8376 ft | 258 kts | 88° |
| 2026-04-29 07:57 | 52.48334 | 4.90319 | 9164 ft | 265 kts | 105° |
| 2026-04-29 07:57 | 52.47436 | 4.93008 | 9956 ft | 276 kts | 127° |
| 2026-04-29 07:57 | 52.45966 | 4.95078 | 10681 ft | 285 kts | 141° |
| 2026-04-29 07:57 | 52.44287 | 4.96942 | 11327 ft | 295 kts | 142° |
| 2026-04-29 07:58 | 52.42552 | 4.98861 | 11873 ft | 307 kts | 142° |
| 2026-04-29 07:58 | 52.40759 | 5.00881 | 12419 ft | 319 kts | 141° |
| 2026-04-29 07:58 | 52.38904 | 5.02996 | 12962 ft | 331 kts | 141° |
| 2026-04-29 07:58 | 52.36986 | 5.05192 | 13514 ft | 341 kts | 141° |
| 2026-04-29 07:59 | 52.35018 | 5.07454 | 14120 ft | 349 kts | 141° |
| 2026-04-29 07:59 | 52.33105 | 5.09920 | 14750 ft | 350 kts | 132° |
| 2026-04-29 07:59 | 52.31438 | 5.12823 | 15414 ft | 351 kts | 128° |
| 2026-04-29 07:59 | 52.29811 | 5.15820 | 16069 ft | 355 kts | 127° |
| 2026-04-29 08:00 | 52.28173 | 5.18835 | 16710 ft | 358 kts | 128° |
| 2026-04-29 08:00 | 52.26499 | 5.21897 | 17346 ft | 361 kts | 128° |
| 2026-04-29 08:00 | 52.24816 | 5.24967 | 17965 ft | 364 kts | 126° |
| 2026-04-29 08:00 | 52.23271 | 5.28243 | 18577 ft | 365 kts | 121° |
| 2026-04-29 08:01 | 52.21799 | 5.31641 | 19109 ft | 368 kts | 121° |
| 2026-04-29 08:01 | 52.20320 | 5.35073 | 19632 ft | 371 kts | 121° |
| 2026-04-29 08:01 | 52.18828 | 5.38516 | 20164 ft | 374 kts | 121° |
| 2026-04-29 08:01 | 52.17319 | 5.41987 | 20689 ft | 376 kts | 121° |
| 2026-04-29 08:02 | 52.15799 | 5.45473 | 21191 ft | 380 kts | 121° |
| 2026-04-29 08:02 | 52.14262 | 5.48991 | 21729 ft | 381 kts | 121° |
| 2026-04-29 08:02 | 52.12721 | 5.52515 | 22258 ft | 383 kts | 121° |
| 2026-04-29 08:02 | 52.11170 | 5.56061 | 22768 ft | 386 kts | 121° |
| 2026-04-29 08:03 | 52.09609 | 5.59629 | 23264 ft | 388 kts | 121° |
| 2026-04-29 08:03 | 52.08041 | 5.63213 | 23786 ft | 391 kts | 121° |
| 2026-04-29 08:03 | 52.06451 | 5.66812 | 24223 ft | 394 kts | 123° |
| 2026-04-29 08:03 | 52.04703 | 5.70272 | 24639 ft | 398 kts | 126° |
| 2026-04-29 08:04 | 52.02879 | 5.73680 | 25018 ft | 401 kts | 127° |
| 2026-04-29 08:04 | 52.01034 | 5.77091 | 25428 ft | 403 kts | 127° |
| 2026-04-29 08:04 | 51.99185 | 5.80518 | 25824 ft | 405 kts | 126° |
| 2026-04-29 08:04 | 51.97328 | 5.83959 | 26213 ft | 407 kts | 126° |
| 2026-04-29 08:05 | 51.95467 | 5.87434 | 26604 ft | 409 kts | 126° |
| 2026-04-29 08:05 | 51.93599 | 5.90931 | 26943 ft | 412 kts | 125° |
| 2026-04-29 08:05 | 51.91719 | 5.94454 | 27290 ft | 414 kts | 125° |
| 2026-04-29 08:05 | 51.89851 | 5.97943 | 27634 ft | 416 kts | 125° |
| 2026-04-29 08:06 | 51.87947 | 6.01486 | 28018 ft | 418 kts | 125° |
| 2026-04-29 08:06 | 51.86035 | 6.05033 | 28380 ft | 419 kts | 125° |
| 2026-04-29 08:06 | 51.84108 | 6.08593 | 28710 ft | 421 kts | 125° |
| 2026-04-29 08:06 | 51.82167 | 6.12154 | 29031 ft | 423 kts | 125° |
| 2026-04-29 08:07 | 51.80211 | 6.15739 | 29359 ft | 426 kts | 125° |
| 2026-04-29 08:07 | 51.78252 | 6.19323 | 29680 ft | 427 kts | 125° |
| 2026-04-29 08:07 | 51.76278 | 6.22931 | 30003 ft | 429 kts | 125° |
| 2026-04-29 08:07 | 51.74298 | 6.26550 | 30305 ft | 431 kts | 125° |
| 2026-04-29 08:08 | 51.72305 | 6.30187 | 30572 ft | 433 kts | 125° |
| 2026-04-29 08:08 | 51.70303 | 6.33830 | 30824 ft | 436 kts | 125° |
| 2026-04-29 08:08 | 51.68287 | 6.37497 | 31058 ft | 438 kts | 125° |
| 2026-04-29 08:08 | 51.66266 | 6.41164 | 31360 ft | 437 kts | 125° |
| 2026-04-29 08:09 | 51.64246 | 6.44819 | 31679 ft | 437 kts | 125° |
| 2026-04-29 08:09 | 51.62230 | 6.48471 | 32001 ft | 436 kts | 125° |
| 2026-04-29 08:09 | 51.60216 | 6.52118 | 32311 ft | 436 kts | 125° |
| 2026-04-29 08:09 | 51.58204 | 6.55752 | 32593 ft | 435 kts | 125° |
| 2026-04-29 08:10 | 51.56188 | 6.59389 | 32871 ft | 435 kts | 125° |
| 2026-04-29 08:10 | 51.54175 | 6.63018 | 33141 ft | 435 kts | 125° |
| 2026-04-29 08:10 | 51.52162 | 6.66643 | 33393 ft | 435 kts | 125° |
| 2026-04-29 08:10 | 51.50144 | 6.70262 | 33656 ft | 435 kts | 125° |
| 2026-04-29 08:11 | 51.48125 | 6.73875 | 33913 ft | 435 kts | 125° |
| 2026-04-29 08:11 | 51.46106 | 6.77492 | 34085 ft | 436 kts | 125° |
| 2026-04-29 08:11 | 51.44076 | 6.81123 | 34277 ft | 437 kts | 126° |
| 2026-04-29 08:11 | 51.42048 | 6.84740 | 34455 ft | 438 kts | 126° |
| 2026-04-29 08:12 | 51.39825 | 6.88127 | 34603 ft | 446 kts | 136° |
| 2026-04-29 08:12 | 51.37255 | 6.90969 | 34761 ft | 451 kts | 141° |
| 2026-04-29 08:12 | 51.34583 | 6.93626 | 34908 ft | 453 kts | 143° |
| 2026-04-29 08:12 | 51.31893 | 6.96272 | 35076 ft | 454 kts | 143° |
| 2026-04-29 08:13 | 51.29211 | 6.98932 | 35226 ft | 454 kts | 143° |
| 2026-04-29 08:13 | 51.26531 | 7.01610 | 35372 ft | 455 kts | 143° |
| 2026-04-29 08:13 | 51.21174 | 7.06978 | 35390 ft | 454 kts | 143° |
| 2026-04-29 08:14 | 51.15822 | 7.12325 | 35360 ft | 454 kts | 143° |
| 2026-04-29 08:14 | 51.10448 | 7.17683 | 35344 ft | 457 kts | 144° |
| 2026-04-29 08:15 | 51.05953 | 7.22147 | 35343 ft | 458 kts | 144° |
| 2026-04-29 08:15 | 51.00547 | 7.27508 | 35343 ft | 458 kts | 145° |
| 2026-04-29 08:16 | 50.95146 | 7.32846 | 35342 ft | 458 kts | 145° |
| 2026-04-29 08:16 | 50.89731 | 7.38170 | 35347 ft | 458 kts | 145° |
| 2026-04-29 08:17 | 50.84324 | 7.43479 | 35342 ft | 457 kts | 145° |
| 2026-04-29 08:17 | 50.78917 | 7.48782 | 35338 ft | 457 kts | 145° |
| 2026-04-29 08:18 | 50.73496 | 7.54081 | 35327 ft | 460 kts | 145° |
| 2026-04-29 08:18 | 50.68132 | 7.59578 | 35317 ft | 459 kts | 143° |
| 2026-04-29 08:19 | 50.62796 | 7.65116 | 35318 ft | 459 kts | 143° |
| 2026-04-29 08:19 | 50.57457 | 7.70641 | 35314 ft | 464 kts | 145° |
| 2026-04-29 08:20 | 50.52024 | 7.76233 | 35318 ft | 464 kts | 145° |
| 2026-04-29 08:20 | 50.46624 | 7.81782 | 35317 ft | 464 kts | 145° |
| 2026-04-29 08:21 | 50.41261 | 7.87278 | 35307 ft | 464 kts | 145° |
| 2026-04-29 08:21 | 50.35813 | 7.92842 | 35310 ft | 467 kts | 146° |
| 2026-04-29 08:22 | 50.30365 | 7.98386 | 35306 ft | 467 kts | 146° |
| 2026-04-29 08:22 | 50.24953 | 8.03881 | 35298 ft | 467 kts | 146° |
| 2026-04-29 08:23 | 50.19502 | 8.09405 | 35289 ft | 467 kts | 146° |
| 2026-04-29 08:23 | 50.14033 | 8.14877 | 35282 ft | 467 kts | 149° |
| 2026-04-29 08:24 | 50.08156 | 8.19225 | 35277 ft | 467 kts | 157° |
| 2026-04-29 08:24 | 50.02206 | 8.23321 | 35300 ft | 468 kts | 156° |
| 2026-04-29 08:25 | 49.96259 | 8.27437 | 35285 ft | 468 kts | 156° |
| 2026-04-29 08:25 | 49.90320 | 8.31546 | 35281 ft | 467 kts | 156° |
| 2026-04-29 08:26 | 49.84371 | 8.35651 | 35270 ft | 468 kts | 157° |
| 2026-04-29 08:26 | 49.78420 | 8.39743 | 35272 ft | 468 kts | 157° |
| 2026-04-29 08:27 | 49.72463 | 8.43831 | 35270 ft | 468 kts | 157° |
| 2026-04-29 08:27 | 49.66501 | 8.47910 | 35278 ft | 468 kts | 157° |
| 2026-04-29 08:28 | 49.60537 | 8.51982 | 35281 ft | 469 kts | 158° |
| 2026-04-29 08:28 | 49.54576 | 8.56037 | 35289 ft | 469 kts | 158° |
| 2026-04-29 08:29 | 49.48590 | 8.60099 | 35296 ft | 477 kts | 158° |
| 2026-04-29 08:29 | 49.42478 | 8.64222 | 35292 ft | 481 kts | 158° |
| 2026-04-29 08:30 | 49.33245 | 8.70447 | 35273 ft | 484 kts | 159° |
| 2026-04-29 08:31 | 49.27081 | 8.74600 | 35259 ft | 484 kts | 159° |
| 2026-04-29 08:31 | 49.20920 | 8.78738 | 35237 ft | 484 kts | 159° |
| 2026-04-29 08:32 | 49.14743 | 8.82870 | 35224 ft | 486 kts | 159° |
| 2026-04-29 08:32 | 49.08552 | 8.86998 | 35235 ft | 486 kts | 159° |
| 2026-04-29 08:33 | 49.02355 | 8.91120 | 35230 ft | 486 kts | 159° |
| 2026-04-29 08:33 | 48.96160 | 8.95226 | 35221 ft | 486 kts | 159° |
| 2026-04-29 08:34 | 48.89955 | 8.99328 | 35209 ft | 487 kts | 160° |
| 2026-04-29 08:34 | 48.83733 | 9.03433 | 35206 ft | 487 kts | 160° |
| 2026-04-29 08:35 | 48.77550 | 9.07502 | 35202 ft | 487 kts | 160° |
| 2026-04-29 08:35 | 48.71295 | 9.11608 | 35180 ft | 487 kts | 160° |
| 2026-04-29 08:36 | 48.65107 | 9.15655 | 35216 ft | 487 kts | 160° |
| 2026-04-29 08:36 | 48.58891 | 9.19710 | 35207 ft | 487 kts | 160° |
| 2026-04-29 08:37 | 48.52665 | 9.23763 | 35203 ft | 487 kts | 160° |
| 2026-04-29 08:37 | 48.46440 | 9.27802 | 35205 ft | 487 kts | 160° |
| 2026-04-29 08:38 | 48.40209 | 9.31835 | 35195 ft | 487 kts | 160° |
| 2026-04-29 08:38 | 48.33978 | 9.35857 | 35196 ft | 487 kts | 160° |
| 2026-04-29 08:39 | 48.27749 | 9.39869 | 35194 ft | 487 kts | 160° |
| 2026-04-29 08:39 | 48.21537 | 9.43855 | 35181 ft | 483 kts | 161° |
| 2026-04-29 08:40 | 48.15342 | 9.47821 | 35195 ft | 484 kts | 161° |
| 2026-04-29 08:40 | 48.09142 | 9.51781 | 35195 ft | 485 kts | 161° |
| 2026-04-29 08:41 | 48.02941 | 9.55767 | 35174 ft | 486 kts | 159° |
| 2026-04-29 08:41 | 47.97182 | 9.61136 | 35179 ft | 490 kts | 149° |
| 2026-04-29 08:42 | 47.91582 | 9.66935 | 35175 ft | 490 kts | 149° |
| 2026-04-29 08:42 | 47.85960 | 9.72684 | 35165 ft | 490 kts | 149° |
| 2026-04-29 08:43 | 47.80330 | 9.78409 | 35155 ft | 491 kts | 149° |
| 2026-04-29 08:43 | 47.74710 | 9.84111 | 35166 ft | 489 kts | 149° |
| 2026-04-29 08:44 | 47.69122 | 9.89765 | 35169 ft | 489 kts | 149° |
| 2026-04-29 08:44 | 47.63464 | 9.95468 | 35164 ft | 489 kts | 149° |
| 2026-04-29 08:45 | 47.57840 | 10.01125 | 35168 ft | 489 kts | 149° |
| 2026-04-29 08:45 | 47.52261 | 10.06722 | 35166 ft | 487 kts | 149° |
| 2026-04-29 08:46 | 47.46634 | 10.12358 | 35162 ft | 489 kts | 149° |
| 2026-04-29 08:46 | 47.40993 | 10.17987 | 35165 ft | 489 kts | 149° |
| 2026-04-29 08:47 | 47.35361 | 10.23592 | 35166 ft | 489 kts | 149° |
| 2026-04-29 08:47 | 47.29732 | 10.29181 | 35158 ft | 487 kts | 149° |
| 2026-04-29 08:48 | 47.24119 | 10.34741 | 35168 ft | 487 kts | 149° |
| 2026-04-29 08:48 | 47.18488 | 10.40302 | 35176 ft | 488 kts | 150° |
| 2026-04-29 08:49 | 47.12849 | 10.45858 | 35182 ft | 488 kts | 150° |
| 2026-04-29 08:49 | 47.07192 | 10.51368 | 35173 ft | 486 kts | 153° |
| 2026-04-29 08:49 | 47.04194 | 10.53552 | 35167 ft | 479 kts | 164° |
| 2026-04-29 08:50 | 47.01044 | 10.55096 | 35172 ft | 476 kts | 167° |
| 2026-04-29 08:50 | 46.94701 | 10.57887 | 35178 ft | 476 kts | 168° |
| 2026-04-29 08:51 | 46.88360 | 10.60716 | 35158 ft | 476 kts | 167° |
| 2026-04-29 08:51 | 46.82049 | 10.63560 | 35168 ft | 474 kts | 168° |
| 2026-04-29 08:52 | 46.75739 | 10.66396 | 35178 ft | 475 kts | 168° |
| 2026-04-29 08:52 | 46.69424 | 10.68883 | 35160 ft | 472 kts | 172° |
| 2026-04-29 08:53 | 46.63016 | 10.70979 | 35133 ft | 471 kts | 172° |
| 2026-04-29 08:53 | 46.56613 | 10.73063 | 35155 ft | 472 kts | 172° |
| 2026-04-29 08:54 | 46.50211 | 10.75151 | 35151 ft | 472 kts | 172° |
| 2026-04-29 08:54 | 46.43805 | 10.77234 | 35134 ft | 472 kts | 172° |
| 2026-04-29 08:55 | 46.37392 | 10.79313 | 35175 ft | 473 kts | 172° |
| 2026-04-29 08:55 | 46.30988 | 10.81388 | 35181 ft | 472 kts | 172° |
| 2026-04-29 08:56 | 46.24577 | 10.83459 | 35169 ft | 472 kts | 172° |
| 2026-04-29 08:56 | 46.18157 | 10.85527 | 35171 ft | 473 kts | 172° |
| 2026-04-29 08:57 | 46.11721 | 10.87598 | 35152 ft | 473 kts | 172° |
| 2026-04-29 08:57 | 46.05290 | 10.89659 | 35138 ft | 475 kts | 172° |
| 2026-04-29 08:58 | 45.98875 | 10.91713 | 35118 ft | 470 kts | 172° |
| 2026-04-29 08:58 | 45.92470 | 10.93756 | 35121 ft | 470 kts | 172° |
| 2026-04-29 08:59 | 45.86087 | 10.95789 | 35115 ft | 470 kts | 172° |
| 2026-04-29 08:59 | 45.79707 | 10.97814 | 35103 ft | 468 kts | 172° |
| 2026-04-29 09:00 | 45.73359 | 10.99825 | 35110 ft | 468 kts | 172° |
| 2026-04-29 09:00 | 45.66986 | 11.01837 | 35112 ft | 469 kts | 172° |
| 2026-04-29 09:01 | 45.60610 | 11.03867 | 35088 ft | 469 kts | 171° |
| 2026-04-29 09:01 | 45.54264 | 11.05924 | 35086 ft | 467 kts | 171° |
| 2026-04-29 09:02 | 45.47925 | 11.07969 | 35089 ft | 468 kts | 171° |
| 2026-04-29 09:02 | 45.41567 | 11.10010 | 35076 ft | 468 kts | 171° |
| 2026-04-29 09:03 | 45.35233 | 11.12040 | 35081 ft | 467 kts | 171° |
| 2026-04-29 09:03 | 45.28898 | 11.14065 | 35063 ft | 467 kts | 171° |
| 2026-04-29 09:04 | 45.22578 | 11.16081 | 35042 ft | 466 kts | 171° |
| 2026-04-29 09:04 | 45.16233 | 11.18101 | 35057 ft | 466 kts | 171° |
| 2026-04-29 09:05 | 45.10974 | 11.19772 | 35061 ft | 466 kts | 171° |
| 2026-04-29 09:05 | 45.03621 | 11.22101 | 35070 ft | 466 kts | 171° |
| 2026-04-29 09:06 | 44.97296 | 11.24103 | 35089 ft | 465 kts | 171° |
| 2026-04-29 09:06 | 44.90980 | 11.26096 | 35090 ft | 465 kts | 171° |
| 2026-04-29 09:07 | 44.85684 | 11.27761 | 35096 ft | 465 kts | 171° |
| 2026-04-29 09:07 | 44.79368 | 11.29744 | 35090 ft | 465 kts | 171° |
| 2026-04-29 09:08 | 44.73103 | 11.31709 | 35095 ft | 465 kts | 171° |
| 2026-04-29 09:08 | 44.66795 | 11.33681 | 35088 ft | 464 kts | 171° |
| 2026-04-29 09:09 | 44.60483 | 11.35653 | 35076 ft | 465 kts | 171° |
| 2026-04-29 09:09 | 44.54178 | 11.37616 | 35081 ft | 465 kts | 171° |
| 2026-04-29 09:10 | 44.47851 | 11.39580 | 35084 ft | 465 kts | 171° |
| 2026-04-29 09:10 | 44.41530 | 11.41539 | 35072 ft | 465 kts | 171° |
| 2026-04-29 09:11 | 44.35213 | 11.43494 | 35090 ft | 465 kts | 171° |
| 2026-04-29 09:11 | 44.28896 | 11.45441 | 35102 ft | 465 kts | 171° |
| 2026-04-29 09:12 | 44.22586 | 11.47387 | 35093 ft | 465 kts | 171° |
| 2026-04-29 09:12 | 44.16268 | 11.49331 | 35089 ft | 464 kts | 171° |
| 2026-04-29 09:13 | 44.09952 | 11.51265 | 35082 ft | 465 kts | 171° |
| 2026-04-29 09:13 | 44.03638 | 11.53202 | 35086 ft | 465 kts | 171° |
| 2026-04-29 09:14 | 43.97323 | 11.55123 | 35082 ft | 464 kts | 171° |
| 2026-04-29 09:14 | 43.91019 | 11.57043 | 35080 ft | 464 kts | 171° |
| 2026-04-29 09:15 | 43.84704 | 11.58962 | 35081 ft | 464 kts | 171° |
| 2026-04-29 09:15 | 43.78401 | 11.60874 | 35080 ft | 463 kts | 171° |
| 2026-04-29 09:16 | 43.72111 | 11.62783 | 35068 ft | 463 kts | 171° |
| 2026-04-29 09:16 | 43.65822 | 11.64679 | 35079 ft | 463 kts | 171° |
| 2026-04-29 09:17 | 43.59525 | 11.66578 | 35082 ft | 463 kts | 171° |
| 2026-04-29 09:17 | 43.53236 | 11.68469 | 35085 ft | 462 kts | 171° |
| 2026-04-29 09:18 | 43.46956 | 11.70351 | 35077 ft | 462 kts | 171° |
| 2026-04-29 09:18 | 43.40673 | 11.72231 | 35081 ft | 462 kts | 171° |
| 2026-04-29 09:19 | 43.34401 | 11.74102 | 35081 ft | 461 kts | 171° |
| 2026-04-29 09:19 | 43.28128 | 11.75974 | 35078 ft | 461 kts | 171° |
| 2026-04-29 09:20 | 43.21852 | 11.77843 | 35074 ft | 461 kts | 171° |
| 2026-04-29 09:20 | 43.15622 | 11.79689 | 35076 ft | 461 kts | 171° |
| 2026-04-29 09:21 | 43.09358 | 11.81549 | 35074 ft | 461 kts | 171° |
| 2026-04-29 09:21 | 43.03088 | 11.83396 | 35078 ft | 461 kts | 171° |
| 2026-04-29 09:22 | 42.96829 | 11.85241 | 35074 ft | 460 kts | 171° |
| 2026-04-29 09:22 | 42.90531 | 11.87097 | 35077 ft | 460 kts | 171° |
| 2026-04-29 09:23 | 42.84325 | 11.88917 | 35076 ft | 460 kts | 172° |
| 2026-04-29 09:23 | 42.78016 | 11.90179 | 35072 ft | 458 kts | 175° |
| 2026-04-29 09:24 | 42.71700 | 11.91321 | 35078 ft | 458 kts | 175° |
| 2026-04-29 09:24 | 42.65384 | 11.92458 | 35079 ft | 458 kts | 175° |
| 2026-04-29 09:25 | 42.59072 | 11.93602 | 35074 ft | 458 kts | 175° |
| 2026-04-29 09:25 | 42.52767 | 11.94744 | 35082 ft | 457 kts | 175° |
| 2026-04-29 09:26 | 42.46460 | 11.95877 | 35083 ft | 457 kts | 175° |
| 2026-04-29 09:26 | 42.40153 | 11.97009 | 35083 ft | 457 kts | 175° |
| 2026-04-29 09:27 | 42.33855 | 11.98136 | 35081 ft | 457 kts | 175° |
| 2026-04-29 09:27 | 42.27546 | 11.99275 | 35080 ft | 457 kts | 175° |
| 2026-04-29 09:28 | 42.21242 | 12.00403 | 35079 ft | 457 kts | 175° |
| 2026-04-29 09:28 | 42.14936 | 12.01523 | 35149 ft | 457 kts | 175° |
| 2026-04-29 09:29 | 42.08633 | 12.02637 | 35187 ft | 457 kts | 175° |
| 2026-04-29 09:29 | 41.99173 | 12.04310 | 35230 ft | 457 kts | 175° |
| 2026-04-29 09:30 | 41.92914 | 12.05425 | 35226 ft | 456 kts | 175° |
| 2026-04-29 09:30 | 41.86618 | 12.06549 | 35228 ft | 457 kts | 175° |
| 2026-04-29 09:31 | 41.80320 | 12.07654 | 35199 ft | 456 kts | 175° |
| 2026-04-29 09:31 | 41.74024 | 12.08755 | 35160 ft | 456 kts | 175° |
| 2026-04-29 09:32 | 41.67727 | 12.09860 | 35130 ft | 456 kts | 174° |
| 2026-04-29 09:32 | 41.61433 | 12.10962 | 35096 ft | 456 kts | 174° |
| 2026-04-29 09:33 | 41.55140 | 12.12066 | 35068 ft | 456 kts | 174° |
| 2026-04-29 09:33 | 41.48853 | 12.13183 | 35076 ft | 455 kts | 174° |
| 2026-04-29 09:34 | 41.42573 | 12.14310 | 35075 ft | 455 kts | 174° |
| 2026-04-29 09:34 | 41.36291 | 12.15396 | 35075 ft | 455 kts | 175° |
| 2026-04-29 09:35 | 41.30004 | 12.16472 | 35070 ft | 455 kts | 174° |
| 2026-04-29 09:35 | 41.23722 | 12.17556 | 35074 ft | 455 kts | 174° |
| 2026-04-29 09:36 | 41.17447 | 12.18637 | 35075 ft | 455 kts | 174° |
| 2026-04-29 09:36 | 41.11144 | 12.19472 | 35070 ft | 455 kts | 177° |
| 2026-04-29 09:37 | 41.04842 | 12.20194 | 35078 ft | 455 kts | 177° |
| 2026-04-29 09:37 | 40.98536 | 12.20912 | 35080 ft | 455 kts | 177° |
| 2026-04-29 09:38 | 40.92236 | 12.21645 | 35080 ft | 455 kts | 177° |
| 2026-04-29 09:38 | 40.85970 | 12.22374 | 35078 ft | 455 kts | 176° |
| 2026-04-29 09:39 | 40.79667 | 12.23114 | 35080 ft | 455 kts | 177° |
| 2026-04-29 09:39 | 40.73363 | 12.23837 | 35075 ft | 455 kts | 176° |
| 2026-04-29 09:40 | 40.67056 | 12.24558 | 35072 ft | 455 kts | 176° |
| 2026-04-29 09:40 | 40.60736 | 12.25280 | 35079 ft | 456 kts | 176° |
| 2026-04-29 09:41 | 40.54414 | 12.26006 | 35070 ft | 456 kts | 176° |
| 2026-04-29 09:41 | 40.48096 | 12.26731 | 35070 ft | 456 kts | 176° |
| 2026-04-29 09:42 | 40.41758 | 12.27454 | 35072 ft | 458 kts | 177° |
| 2026-04-29 09:42 | 40.35409 | 12.28161 | 35073 ft | 458 kts | 177° |
| 2026-04-29 09:43 | 40.29059 | 12.28870 | 35070 ft | 458 kts | 177° |
| 2026-04-29 09:43 | 40.22702 | 12.29589 | 35061 ft | 459 kts | 177° |
| 2026-04-29 09:44 | 40.16339 | 12.30311 | 35065 ft | 460 kts | 177° |
| 2026-04-29 09:44 | 40.09964 | 12.31035 | 35063 ft | 460 kts | 177° |
| 2026-04-29 09:45 | 40.03630 | 12.31754 | 35055 ft | 448 kts | 177° |
| 2026-04-29 09:45 | 39.97477 | 12.32448 | 35057 ft | 443 kts | 177° |
| 2026-04-29 09:46 | 39.91342 | 12.33143 | 35065 ft | 442 kts | 177° |
| 2026-04-29 09:46 | 39.85254 | 12.33829 | 35072 ft | 442 kts | 177° |
| 2026-04-29 09:47 | 39.79124 | 12.34517 | 34952 ft | 438 kts | 178° |
| 2026-04-29 09:47 | 39.76071 | 12.34858 | 34639 ft | 443 kts | 178° |
| 2026-04-29 09:47 | 39.72996 | 12.35203 | 34385 ft | 445 kts | 178° |
| 2026-04-29 09:48 | 39.69910 | 12.35549 | 34146 ft | 445 kts | 177° |
| 2026-04-29 09:48 | 39.66829 | 12.35894 | 33880 ft | 444 kts | 177° |
| 2026-04-29 09:48 | 39.63760 | 12.36238 | 33547 ft | 441 kts | 177° |
| 2026-04-29 09:48 | 39.60714 | 12.36578 | 33098 ft | 437 kts | 177° |
| 2026-04-29 09:49 | 39.57696 | 12.36914 | 32589 ft | 434 kts | 178° |
| 2026-04-29 09:49 | 39.54696 | 12.37250 | 32050 ft | 432 kts | 178° |
| 2026-04-29 09:49 | 39.51704 | 12.37583 | 31525 ft | 430 kts | 178° |
| 2026-04-29 09:49 | 39.48732 | 12.37915 | 31008 ft | 428 kts | 178° |
| 2026-04-29 09:50 | 39.45772 | 12.38244 | 30504 ft | 426 kts | 178° |
| 2026-04-29 09:50 | 39.42832 | 12.38569 | 29993 ft | 423 kts | 177° |
| 2026-04-29 09:50 | 39.39901 | 12.38896 | 29395 ft | 422 kts | 177° |
| 2026-04-29 09:50 | 39.36985 | 12.39220 | 28847 ft | 419 kts | 178° |
| 2026-04-29 09:51 | 39.34092 | 12.39539 | 28325 ft | 416 kts | 178° |
| 2026-04-29 09:51 | 39.31218 | 12.39856 | 27824 ft | 413 kts | 178° |
| 2026-04-29 09:51 | 39.28369 | 12.40172 | 27349 ft | 410 kts | 178° |
| 2026-04-29 09:51 | 39.25538 | 12.40484 | 26850 ft | 407 kts | 178° |
| 2026-04-29 09:52 | 39.22721 | 12.40796 | 26344 ft | 405 kts | 178° |
| 2026-04-29 09:52 | 39.19923 | 12.41104 | 25854 ft | 403 kts | 178° |
| 2026-04-29 09:52 | 39.17139 | 12.41412 | 25389 ft | 400 kts | 178° |
| 2026-04-29 09:52 | 39.14375 | 12.41719 | 24907 ft | 398 kts | 178° |
| 2026-04-29 09:53 | 39.11617 | 12.42023 | 24402 ft | 397 kts | 178° |
| 2026-04-29 09:53 | 39.08871 | 12.42323 | 23918 ft | 395 kts | 178° |
| 2026-04-29 09:53 | 39.06136 | 12.42624 | 23404 ft | 394 kts | 178° |
| 2026-04-29 09:53 | 39.03410 | 12.42922 | 22860 ft | 392 kts | 178° |
| 2026-04-29 09:54 | 39.00701 | 12.43217 | 22352 ft | 390 kts | 178° |
| 2026-04-29 09:54 | 38.98047 | 12.43507 | 21842 ft | 386 kts | 178° |
| 2026-04-29 09:54 | 38.96249 | 12.43706 | 21503 ft | 383 kts | 178° |
| 2026-04-29 09:54 | 38.93611 | 12.43996 | 21008 ft | 378 kts | 178° |
| 2026-04-29 09:55 | 38.91005 | 12.44281 | 20530 ft | 373 kts | 178° |
| 2026-04-29 09:55 | 38.88435 | 12.44590 | 20090 ft | 369 kts | 175° |
| 2026-04-29 09:55 | 38.85251 | 12.46025 | 19523 ft | 369 kts | 151° |
| 2026-04-29 09:55 | 38.83138 | 12.47876 | 19124 ft | 365 kts | 147° |
| 2026-04-29 09:56 | 38.81752 | 12.49162 | 18863 ft | 362 kts | 147° |
| 2026-04-29 09:56 | 38.79720 | 12.51035 | 18476 ft | 358 kts | 147° |
| 2026-04-29 09:56 | 38.77692 | 12.52866 | 18058 ft | 357 kts | 147° |
| 2026-04-29 09:56 | 38.75653 | 12.54685 | 17637 ft | 357 kts | 148° |
| 2026-04-29 09:57 | 38.73639 | 12.56472 | 17228 ft | 357 kts | 148° |
| 2026-04-29 09:57 | 38.71600 | 12.58275 | 16839 ft | 356 kts | 148° |
| 2026-04-29 09:57 | 38.69563 | 12.60071 | 16460 ft | 355 kts | 148° |
| 2026-04-29 09:57 | 38.67535 | 12.61861 | 16083 ft | 353 kts | 148° |
| 2026-04-29 09:58 | 38.65512 | 12.63640 | 15704 ft | 352 kts | 148° |
| 2026-04-29 09:58 | 38.63492 | 12.65411 | 15334 ft | 352 kts | 148° |
| 2026-04-29 09:58 | 38.61479 | 12.67177 | 14965 ft | 351 kts | 148° |
| 2026-04-29 09:58 | 38.59473 | 12.68937 | 14607 ft | 350 kts | 148° |
| 2026-04-29 09:59 | 38.57467 | 12.70701 | 14237 ft | 349 kts | 148° |
| 2026-04-29 09:59 | 38.55476 | 12.72448 | 13865 ft | 345 kts | 148° |
| 2026-04-29 09:59 | 38.53512 | 12.74172 | 13464 ft | 340 kts | 148° |
| 2026-04-29 09:59 | 38.51579 | 12.75864 | 13084 ft | 334 kts | 148° |
| 2026-04-29 10:00 | 38.49682 | 12.77524 | 12741 ft | 327 kts | 148° |
| 2026-04-29 10:00 | 38.47893 | 12.79284 | 12406 ft | 324 kts | 137° |
| 2026-04-29 10:00 | 38.46669 | 12.81669 | 12060 ft | 325 kts | 112° |
| 2026-04-29 10:00 | 38.46326 | 12.84510 | 11717 ft | 327 kts | 87° |
| 2026-04-29 10:01 | 38.46929 | 12.87296 | 11379 ft | 328 kts | 64° |
| 2026-04-29 10:01 | 38.48002 | 12.89861 | 11048 ft | 327 kts | 63° |
| 2026-04-29 10:01 | 38.49017 | 12.92454 | 10737 ft | 325 kts | 66° |
| 2026-04-29 10:01 | 38.49900 | 12.95073 | 10488 ft | 317 kts | 69° |
| 2026-04-29 10:02 | 38.50650 | 12.97671 | 10302 ft | 307 kts | 72° |
| 2026-04-29 10:02 | 38.51284 | 13.00235 | 10115 ft | 301 kts | 75° |
| 2026-04-29 10:02 | 38.51818 | 13.02809 | 9961 ft | 300 kts | 78° |
| 2026-04-29 10:02 | 38.52268 | 13.05415 | 9821 ft | 299 kts | 80° |
| 2026-04-29 10:03 | 38.52631 | 13.08025 | 9685 ft | 298 kts | 83° |
| 2026-04-29 10:03 | 38.52901 | 13.10648 | 9558 ft | 297 kts | 85° |
| 2026-04-29 10:03 | 38.53085 | 13.13271 | 9428 ft | 296 kts | 88° |
| 2026-04-29 10:03 | 38.53185 | 13.15903 | 9294 ft | 298 kts | 89° |
| 2026-04-29 10:04 | 38.53200 | 13.18543 | 9166 ft | 297 kts | 92° |
| 2026-04-29 10:04 | 38.53130 | 13.21145 | 9040 ft | 296 kts | 94° |
| 2026-04-29 10:04 | 38.52971 | 13.23796 | 8910 ft | 295 kts | 96° |
| 2026-04-29 10:04 | 38.52739 | 13.26365 | 8784 ft | 295 kts | 99° |
| 2026-04-29 10:05 | 38.52418 | 13.28979 | 8659 ft | 294 kts | 101° |
| 2026-04-29 10:05 | 38.52018 | 13.31531 | 8533 ft | 293 kts | 104° |
| 2026-04-29 10:05 | 38.51545 | 13.34020 | 8407 ft | 292 kts | 106° |
| 2026-04-29 10:05 | 38.50989 | 13.36502 | 8278 ft | 291 kts | 108° |
| 2026-04-29 10:06 | 38.50354 | 13.38946 | 8066 ft | 289 kts | 111° |
| 2026-04-29 10:06 | 38.49646 | 13.41337 | 7808 ft | 286 kts | 113° |
| 2026-04-29 10:06 | 38.48873 | 13.43661 | 7533 ft | 285 kts | 115° |
| 2026-04-29 10:06 | 38.48026 | 13.45951 | 7230 ft | 284 kts | 118° |
| 2026-04-29 10:07 | 38.47111 | 13.48191 | 6923 ft | 284 kts | 120° |
| 2026-04-29 10:07 | 38.46128 | 13.50380 | 6602 ft | 284 kts | 122° |
| 2026-04-29 10:07 | 38.45088 | 13.52503 | 6360 ft | 278 kts | 125° |
| 2026-04-29 10:07 | 38.44005 | 13.54499 | 6156 ft | 269 kts | 132° |
| 2026-04-29 10:08 | 38.42585 | 13.55951 | 5955 ft | 257 kts | 154° |
| 2026-04-29 10:08 | 38.40923 | 13.56572 | 5814 ft | 244 kts | 176° |
| 2026-04-29 10:08 | 38.39287 | 13.56391 | 5691 ft | 231 kts | 197° |
| 2026-04-29 10:08 | 38.37872 | 13.55559 | 5529 ft | 221 kts | 216° |
| 2026-04-29 10:09 | 38.36766 | 13.54235 | 5223 ft | 218 kts | 230° |
| 2026-04-29 10:09 | 38.35838 | 13.52747 | 4923 ft | 211 kts | 231° |
| 2026-04-29 10:09 | 38.34927 | 13.51288 | 4541 ft | 210 kts | 230° |
| 2026-04-29 10:09 | 38.34002 | 13.49843 | 4178 ft | 211 kts | 230° |
| 2026-04-29 10:10 | 38.33066 | 13.48406 | 3887 ft | 209 kts | 229° |
| 2026-04-29 10:10 | 38.32130 | 13.46987 | 3632 ft | 209 kts | 229° |
| 2026-04-29 10:10 | 38.31199 | 13.45570 | 3486 ft | 208 kts | 229° |
| 2026-04-29 10:10 | 38.30265 | 13.44150 | 3476 ft | 209 kts | 229° |
| 2026-04-29 10:11 | 38.29331 | 13.42737 | 3481 ft | 209 kts | 229° |
| 2026-04-29 10:11 | 38.28408 | 13.41306 | 3490 ft | 210 kts | 232° |
| 2026-04-29 10:11 | 38.27751 | 13.39642 | 3495 ft | 212 kts | 247° |
| 2026-04-29 10:11 | 38.27188 | 13.37919 | 3497 ft | 210 kts | 245° |
| 2026-04-29 10:12 | 38.26626 | 13.36211 | 3500 ft | 210 kts | 246° |
| 2026-04-29 10:12 | 38.26051 | 13.34489 | 3431 ft | 210 kts | 246° |
| 2026-04-29 10:12 | 38.25487 | 13.32787 | 3096 ft | 209 kts | 245° |
| 2026-04-29 10:12 | 38.24924 | 13.31095 | 2961 ft | 203 kts | 245° |
| 2026-04-29 10:13 | 38.24401 | 13.29525 | 2942 ft | 184 kts | 245° |
| 2026-04-29 10:13 | 38.23923 | 13.28078 | 2800 ft | 170 kts | 245° |
| 2026-04-29 10:13 | 38.23481 | 13.26776 | 2637 ft | 147 kts | 245° |
| 2026-04-29 10:13 | 38.23093 | 13.25612 | 2433 ft | 142 kts | 246° |
| 2026-04-29 10:14 | 38.22706 | 13.24451 | 2231 ft | 145 kts | 245° |
| 2026-04-29 10:14 | 38.22303 | 13.23272 | 2037 ft | 145 kts | 246° |
| 2026-04-29 10:14 | 38.21918 | 13.22095 | 1822 ft | 144 kts | 247° |
| 2026-04-29 10:14 | 38.21525 | 13.20921 | 1600 ft | 144 kts | 246° |
| 2026-04-29 10:15 | 38.21139 | 13.19743 | 1398 ft | 145 kts | 246° |
| 2026-04-29 10:15 | 38.20742 | 13.18563 | 1190 ft | 145 kts | 247° |
| 2026-04-29 10:15 | 38.20347 | 13.17379 | 996 ft | 146 kts | 247° |
| 2026-04-29 10:15 | 38.19948 | 13.16188 | 805 ft | 146 kts | 248° |
| 2026-04-29 10:16 | 38.19552 | 13.15001 | 623 ft | 145 kts | 248° |
| 2026-04-29 10:16 | 38.19291 | 13.14227 | 470 ft | 143 kts | 248° |
| 2026-04-29 10:16 | 38.18782 | 13.12676 | 210 ft | 141 kts | 249° |
| 2026-04-29 10:16 | 38.18396 | 13.11529 | 48 ft | 139 kts | 250° |
| 2026-04-29 10:17 | 38.18074 | 13.10558 | 42 ft | 82 kts | 246° |
| 2026-04-29 10:17 | 38.18024 | 13.10175 | 51 ft | 32 kts | 278° |
| 2026-04-29 10:17 | 38.18047 | 13.10004 | 57 ft | 10 kts | 298° |
| 2026-04-29 10:17 | 38.18103 | 13.10041 | 63 ft | 13 kts | 73° |
| 2026-04-29 10:18 | 38.18139 | 13.10152 | 61 ft | 14 kts | 66° |
| 2026-04-29 10:18 | 38.18180 | 13.10271 | 62 ft | 16 kts | 65° |
| 2026-04-29 10:18 | 38.18261 | 13.10356 | 67 ft | 18 kts | 11° |
| 2026-04-29 10:18 | 38.18332 | 13.10478 | 59 ft | 17 kts | 29° |
| 2026-04-29 10:19 | 38.18381 | 13.10498 | 69 ft | 8 kts | 17° |
| 2026-04-29 10:19 | 38.18434 | 13.10533 | 63 ft | 10 kts | 49° |
| 2026-04-29 10:19 | 38.18466 | 13.10605 | 62 ft | 7 kts | 66° |
| 2026-04-29 10:19 | 38.18515 | 13.10625 | 67 ft | 10 kts | 335° |
| 2026-04-29 10:20 | 38.18532 | 13.10615 | 70 ft | 2 kts | 336° |
| 2026-04-29 10:20 | 38.18548 | 13.10606 | 69 ft | 1 kts | 337° |
| 2026-04-29 10:20 | 38.18552 | 13.10604 | 65 ft | 0 kts | 336° |